VOC4062 MROC-MMMX
Flight info
| Callsign | VOC4062 |
|---|---|
| Flight time | N/A |
| Altitude | 36000 |
| Route | NANJO4U ULAPO UA502 MGA UA317 TAP J13 IZT UT157 LARLO LARLO4A |
| Aircraft | A320/M-SDE3FGHIRWY/LB1 |
Departure
| Time | 2026-05-04 18:34 |
|---|---|
| Airport | Juan Santamaría International Airport (MROC) |
Arrival
| Time | N/A |
|---|---|
| Airport | Mexico City Benito Juárez International Airport (MMMX) |
| Time | Latitude | Longitude | Altitude | Speed | Heading |
|---|---|---|---|---|---|
| 2026-05-04 18:21 | 9.99760 | -84.20317 | 3034 ft | 0 kts | 339° |
| 2026-05-04 18:22 | 9.99758 | -84.20316 | 3034 ft | 0 kts | 339° |
| 2026-05-04 18:27 | 9.99742 | -84.20310 | 3036 ft | 4 kts | 340° |
| 2026-05-04 18:27 | 9.99722 | -84.20302 | 3035 ft | 4 kts | 353° |
| 2026-05-04 18:27 | 9.99704 | -84.20308 | 3034 ft | 4 kts | 65° |
| 2026-05-04 18:28 | 9.99694 | -84.20332 | 3034 ft | 4 kts | 69° |
| 2026-05-04 18:28 | 9.99692 | -84.20339 | 3034 ft | 0 kts | 69° |
| 2026-05-04 18:30 | 9.99731 | -84.20233 | 3036 ft | 15 kts | 68° |
| 2026-05-04 18:30 | 9.99770 | -84.20132 | 3034 ft | 16 kts | 69° |
| 2026-05-04 18:30 | 9.99797 | -84.20058 | 3034 ft | 0 kts | 69° |
| 2026-05-04 18:32 | 9.99798 | -84.20055 | 3034 ft | 1 kts | 69° |
| 2026-05-04 18:32 | 9.99787 | -84.20012 | 3035 ft | 17 kts | 132° |
| 2026-05-04 18:33 | 9.99708 | -84.20038 | 3039 ft | 10 kts | 245° |
| 2026-05-04 18:33 | 9.99706 | -84.20041 | 3038 ft | 0 kts | 248° |
| 2026-05-04 18:33 | 9.99696 | -84.20068 | 3039 ft | 24 kts | 248° |
| 2026-05-04 18:33 | 9.99550 | -84.20453 | 3038 ft | 90 kts | 250° |
| 2026-05-04 18:34 | 9.99266 | -84.21218 | 2999 ft | 143 kts | 249° |
| 2026-05-04 18:34 | 9.98854 | -84.22308 | 3132 ft | 174 kts | 249° |
| 2026-05-04 18:34 | 9.98409 | -84.23439 | 3821 ft | 176 kts | 249° |
| 2026-05-04 18:34 | 9.97920 | -84.24652 | 4190 ft | 195 kts | 248° |
| 2026-05-04 18:35 | 9.97386 | -84.25973 | 4420 ft | 208 kts | 248° |
| 2026-05-04 18:35 | 9.96822 | -84.27397 | 4673 ft | 225 kts | 252° |
| 2026-05-04 18:35 | 9.96746 | -84.28983 | 5064 ft | 232 kts | 289° |
| 2026-05-04 18:35 | 9.97699 | -84.30281 | 5547 ft | 237 kts | 329° |
| 2026-05-04 18:36 | 9.99204 | -84.30986 | 6123 ft | 240 kts | 343° |
| 2026-05-04 18:36 | 10.00819 | -84.31486 | 6745 ft | 244 kts | 346° |
| 2026-05-04 18:36 | 10.02466 | -84.31993 | 7322 ft | 249 kts | 344° |
| 2026-05-04 18:36 | 10.04126 | -84.32569 | 7896 ft | 255 kts | 341° |
| 2026-05-04 18:37 | 10.05796 | -84.33221 | 8536 ft | 259 kts | 340° |
| 2026-05-04 18:37 | 10.07474 | -84.33937 | 9144 ft | 263 kts | 339° |
| 2026-05-04 18:37 | 10.09194 | -84.34710 | 9501 ft | 281 kts | 337° |
| 2026-05-04 18:37 | 10.10978 | -84.35673 | 9791 ft | 300 kts | 325° |
| 2026-05-04 18:38 | 10.12540 | -84.37126 | 10209 ft | 313 kts | 308° |
| 2026-05-04 18:38 | 10.13785 | -84.39034 | 10280 ft | 336 kts | 302° |
| 2026-05-04 18:38 | 10.15034 | -84.41080 | 10491 ft | 353 kts | 302° |
| 2026-05-04 18:38 | 10.16321 | -84.43226 | 10937 ft | 359 kts | 302° |
| 2026-05-04 18:39 | 10.17627 | -84.45409 | 11465 ft | 363 kts | 302° |
| 2026-05-04 18:39 | 10.18922 | -84.47568 | 12008 ft | 366 kts | 302° |
| 2026-05-04 18:39 | 10.20262 | -84.49789 | 12571 ft | 368 kts | 301° |
| 2026-05-04 18:39 | 10.21602 | -84.51999 | 13141 ft | 370 kts | 302° |
| 2026-05-04 18:40 | 10.22961 | -84.54232 | 13693 ft | 371 kts | 301° |
| 2026-05-04 18:40 | 10.23858 | -84.55709 | 14067 ft | 371 kts | 301° |
| 2026-05-04 18:40 | 10.25211 | -84.57944 | 14558 ft | 372 kts | 301° |
| 2026-05-04 18:40 | 10.26564 | -84.60184 | 15029 ft | 374 kts | 302° |
| 2026-05-04 18:41 | 10.27932 | -84.62447 | 15471 ft | 377 kts | 302° |
| 2026-05-04 18:41 | 10.29312 | -84.64723 | 15954 ft | 379 kts | 302° |
| 2026-05-04 18:41 | 10.31152 | -84.67754 | 16560 ft | 382 kts | 302° |
| 2026-05-04 18:41 | 10.32095 | -84.69309 | 16881 ft | 384 kts | 302° |
| 2026-05-04 18:42 | 10.33493 | -84.71619 | 17356 ft | 385 kts | 302° |
| 2026-05-04 18:42 | 10.34901 | -84.73947 | 17802 ft | 388 kts | 303° |
| 2026-05-04 18:42 | 10.36318 | -84.76290 | 18239 ft | 390 kts | 303° |
| 2026-05-04 18:42 | 10.37743 | -84.78645 | 18639 ft | 392 kts | 302° |
| 2026-05-04 18:43 | 10.39176 | -84.81013 | 19051 ft | 394 kts | 302° |
| 2026-05-04 18:43 | 10.40616 | -84.83391 | 19458 ft | 395 kts | 302° |
| 2026-05-04 18:43 | 10.42059 | -84.85775 | 19858 ft | 397 kts | 302° |
| 2026-05-04 18:43 | 10.43486 | -84.88137 | 20256 ft | 398 kts | 302° |
| 2026-05-04 18:44 | 10.44933 | -84.90538 | 20688 ft | 399 kts | 301° |
| 2026-05-04 18:44 | 10.45911 | -84.92163 | 20964 ft | 399 kts | 301° |
| 2026-05-04 18:44 | 10.47837 | -84.95362 | 21495 ft | 401 kts | 301° |
| 2026-05-04 18:44 | 10.49298 | -84.97786 | 21851 ft | 403 kts | 301° |
| 2026-05-04 18:45 | 10.50771 | -85.00223 | 22190 ft | 406 kts | 301° |
| 2026-05-04 18:45 | 10.52253 | -85.02674 | 22527 ft | 408 kts | 301° |
| 2026-05-04 18:45 | 10.53743 | -85.05137 | 22886 ft | 410 kts | 301° |
| 2026-05-04 18:45 | 10.55237 | -85.07613 | 23259 ft | 411 kts | 301° |
| 2026-05-04 18:46 | 10.56733 | -85.10092 | 23579 ft | 413 kts | 301° |
| 2026-05-04 18:46 | 10.58243 | -85.12593 | 23811 ft | 415 kts | 301° |
| 2026-05-04 18:46 | 10.59751 | -85.15099 | 24130 ft | 416 kts | 301° |
| 2026-05-04 18:46 | 10.61260 | -85.17607 | 24434 ft | 416 kts | 301° |
| 2026-05-04 18:47 | 10.62773 | -85.20121 | 24727 ft | 418 kts | 301° |
| 2026-05-04 18:47 | 10.64291 | -85.22643 | 25009 ft | 419 kts | 301° |
| 2026-05-04 18:47 | 10.65813 | -85.25171 | 25292 ft | 420 kts | 301° |
| 2026-05-04 18:47 | 10.67347 | -85.27713 | 25570 ft | 422 kts | 301° |
| 2026-05-04 18:48 | 10.68883 | -85.30261 | 25814 ft | 425 kts | 301° |
| 2026-05-04 18:48 | 10.70432 | -85.32837 | 25990 ft | 428 kts | 301° |
| 2026-05-04 18:48 | 10.71986 | -85.35424 | 26267 ft | 429 kts | 301° |
| 2026-05-04 18:48 | 10.73548 | -85.38022 | 26483 ft | 432 kts | 301° |
| 2026-05-04 18:49 | 10.75122 | -85.40642 | 26734 ft | 433 kts | 301° |
| 2026-05-04 18:49 | 10.76689 | -85.43251 | 27049 ft | 434 kts | 301° |
| 2026-05-04 18:49 | 10.78267 | -85.45875 | 27303 ft | 435 kts | 301° |
| 2026-05-04 18:49 | 10.79851 | -85.48505 | 27576 ft | 436 kts | 301° |
| 2026-05-04 18:50 | 10.81442 | -85.51144 | 27794 ft | 439 kts | 301° |
| 2026-05-04 18:50 | 10.83035 | -85.53794 | 28074 ft | 440 kts | 301° |
| 2026-05-04 18:50 | 10.84634 | -85.56459 | 28319 ft | 443 kts | 301° |
| 2026-05-04 18:50 | 10.86240 | -85.59139 | 28531 ft | 445 kts | 301° |
| 2026-05-04 18:51 | 10.87856 | -85.61834 | 28776 ft | 447 kts | 301° |
| 2026-05-04 18:51 | 10.89478 | -85.64539 | 29113 ft | 447 kts | 301° |
| 2026-05-04 18:51 | 10.91098 | -85.67243 | 29508 ft | 446 kts | 301° |
| 2026-05-04 18:51 | 10.92713 | -85.69938 | 29909 ft | 445 kts | 301° |
| 2026-05-04 18:52 | 10.94303 | -85.72589 | 30255 ft | 444 kts | 301° |
| 2026-05-04 18:52 | 10.95912 | -85.75267 | 30564 ft | 443 kts | 301° |
| 2026-05-04 18:52 | 10.97519 | -85.77938 | 30937 ft | 441 kts | 301° |
| 2026-05-04 18:52 | 10.99119 | -85.80605 | 31289 ft | 440 kts | 301° |
| 2026-05-04 18:53 | 11.00715 | -85.83273 | 31563 ft | 442 kts | 301° |
| 2026-05-04 18:53 | 11.02312 | -85.85945 | 31866 ft | 441 kts | 301° |
| 2026-05-04 18:53 | 11.03905 | -85.88612 | 32213 ft | 440 kts | 301° |
| 2026-05-04 18:53 | 11.05497 | -85.91275 | 32527 ft | 441 kts | 301° |
| 2026-05-04 18:54 | 11.07091 | -85.93944 | 32845 ft | 441 kts | 301° |
| 2026-05-04 18:54 | 11.08689 | -85.96617 | 33107 ft | 442 kts | 301° |
| 2026-05-04 18:54 | 11.10292 | -85.99293 | 33398 ft | 443 kts | 301° |
| 2026-05-04 18:54 | 11.11895 | -86.01970 | 33688 ft | 443 kts | 301° |
| 2026-05-04 18:55 | 11.13498 | -86.04651 | 33968 ft | 443 kts | 301° |
| 2026-05-04 18:55 | 11.16707 | -86.10014 | 34445 ft | 444 kts | 301° |
| 2026-05-04 18:55 | 11.18310 | -86.12698 | 34678 ft | 444 kts | 301° |
| 2026-05-04 18:56 | 11.19918 | -86.15392 | 34897 ft | 444 kts | 301° |
| 2026-05-04 18:56 | 11.21523 | -86.18087 | 35126 ft | 445 kts | 300° |
| 2026-05-04 18:56 | 11.23106 | -86.20740 | 35391 ft | 444 kts | 300° |
| 2026-05-04 18:56 | 11.24709 | -86.23422 | 35651 ft | 443 kts | 301° |
| 2026-05-04 18:57 | 11.26311 | -86.26106 | 35855 ft | 443 kts | 300° |
| 2026-05-04 18:57 | 11.27918 | -86.28801 | 35921 ft | 447 kts | 300° |
| 2026-05-04 18:57 | 11.31184 | -86.34284 | 35926 ft | 458 kts | 300° |
| 2026-05-04 18:58 | 11.34531 | -86.39912 | 35926 ft | 470 kts | 300° |
| 2026-05-04 18:58 | 11.37954 | -86.45662 | 35927 ft | 477 kts | 300° |
| 2026-05-04 18:59 | 11.41408 | -86.51456 | 35920 ft | 479 kts | 300° |
| 2026-05-04 18:59 | 11.44860 | -86.57257 | 35916 ft | 479 kts | 300° |
| 2026-05-04 19:00 | 11.48280 | -86.63014 | 35921 ft | 477 kts | 300° |
| 2026-05-04 19:00 | 11.51743 | -86.68843 | 35922 ft | 477 kts | 300° |
| 2026-05-04 19:01 | 11.55051 | -86.74421 | 35926 ft | 478 kts | 300° |